createdAt,value
2022-10-22T00:02:13.348Z,10.55
2022-10-22T00:07:15.989Z,11.10
2022-10-22T00:09:48.226Z,12.25
2022-10-22T00:12:19.516Z,14.07
2022-10-22T00:14:50.964Z,14.58
2022-10-22T00:17:22.394Z,15.72
2022-10-22T00:19:53.710Z,14.78
2022-10-22T00:22:24.962Z,14.70
2022-10-22T00:24:56.094Z,15.58
2022-10-22T00:27:27.787Z,15.75
2022-10-22T00:29:58.991Z,15.68
2022-10-22T00:32:30.158Z,15.95
2022-10-22T00:35:02.351Z,15.40
2022-10-22T00:37:33.788Z,17.20
2022-10-22T00:40:05.890Z,15.60
2022-10-22T00:42:37.839Z,15.38
2022-10-22T00:45:20.208Z,15.43
2022-10-22T00:47:56.072Z,13.93
2022-10-22T00:50:30.950Z,15.25
2022-10-22T00:53:03.689Z,15.72
2022-10-22T00:55:35.485Z,15.58
2022-10-22T00:58:07.405Z,13.88
2022-10-22T01:00:38.746Z,14.23
2022-10-22T01:03:10.255Z,15.10
2022-10-22T01:05:46.214Z,14.30
2022-10-22T01:08:21.661Z,13.70
2022-10-22T01:10:59.736Z,12.25
2022-10-22T01:13:37.875Z,13.75
2022-10-22T01:16:13.886Z,14.63
2022-10-22T01:18:50.757Z,11.38
2022-10-22T01:21:28.204Z,13.10
2022-10-22T01:24:34.525Z,11.28
2022-10-22T01:27:22.609Z,10.90
2022-10-22T01:29:56.704Z,11.95
2022-10-22T01:32:31.305Z,11.97
2022-10-22T01:35:05.926Z,12.23
2022-10-22T01:37:40.822Z,11.90
2022-10-22T01:40:14.875Z,10.43
2022-10-22T01:42:56.020Z,11.10
2022-10-22T01:45:28.123Z,12.25
2022-10-22T01:48:04.105Z,13.60
2022-10-22T01:50:45.762Z,12.05
2022-10-22T01:53:23.782Z,12.33
2022-10-22T01:56:01.307Z,12.60
2022-10-22T01:58:38.835Z,12.50
2022-10-22T02:01:15.112Z,11.45
2022-10-22T02:03:51.284Z,12.07
2022-10-22T02:06:25.794Z,11.43
2022-10-22T02:08:59.337Z,11.93
2022-10-22T02:11:30.678Z,12.43
2022-10-22T02:14:04.859Z,13.43
2022-10-22T02:16:39.717Z,9.50
2022-10-22T02:19:14.329Z,7.75
2022-10-22T02:21:46.681Z,7.20
2022-10-22T02:24:18.644Z,7.92
2022-10-22T02:26:54.290Z,7.17
2022-10-22T02:29:29.073Z,8.75
2022-10-22T02:32:02.413Z,8.45
2022-10-22T02:34:34.396Z,7.12
2022-10-22T02:37:06.905Z,7.87
2022-10-22T02:39:39.765Z,7.15
2022-10-22T02:42:12.854Z,6.67
2022-10-22T02:44:45.294Z,6.85
2022-10-22T02:47:16.678Z,5.78
2022-10-22T02:49:48.009Z,5.22
2022-10-22T02:52:19.264Z,5.45
2022-10-22T02:54:50.501Z,5.83
2022-10-22T02:59:52.893Z,6.20
2022-10-22T03:02:24.054Z,4.45
2022-10-22T03:04:55.372Z,4.15
2022-10-22T03:07:26.818Z,3.72
2022-10-22T03:09:58.052Z,3.77
2022-10-22T03:12:29.381Z,4.85
2022-10-22T03:15:00.574Z,4.12
2022-10-22T03:17:31.787Z,4.60
2022-10-22T03:20:03.199Z,4.58
2022-10-22T03:22:36.605Z,4.22
2022-10-22T03:25:12.327Z,3.77
2022-10-22T03:27:44.151Z,3.70
2022-10-22T03:30:16.178Z,3.50
2022-10-22T03:32:47.473Z,2.77
2022-10-22T03:35:18.872Z,2.87
2022-10-22T03:37:50.325Z,3.35
2022-10-22T03:40:22.692Z,3.17
2022-10-22T03:42:54.277Z,2.95
2022-10-22T03:45:25.404Z,2.05
2022-10-22T03:47:56.666Z,1.60
2022-10-22T03:50:28.977Z,1.70
2022-10-22T03:53:00.492Z,1.32
2022-10-22T03:55:32.044Z,4.03
2022-10-22T03:58:04.383Z,1.20
2022-10-22T04:00:36.782Z,1.57
2022-10-22T04:03:08.131Z,0.78
2022-10-22T04:05:39.340Z,1.37
2022-10-22T04:08:10.787Z,1.27
2022-10-22T04:10:43.746Z,1.00
2022-10-22T04:13:15.096Z,1.20
2022-10-22T04:18:17.588Z,1.62
2022-10-22T04:20:49.455Z,1.47
2022-10-22T04:23:20.569Z,1.67
2022-10-22T04:25:53.382Z,1.75
2022-10-22T04:28:24.639Z,1.50
2022-10-22T04:30:56.160Z,1.52
2022-10-22T04:33:27.736Z,1.65
2022-10-22T04:35:58.906Z,1.00
2022-10-22T04:38:30.007Z,1.25
2022-10-22T04:41:09.656Z,0.80
2022-10-22T04:43:41.158Z,1.37
2022-10-22T04:46:13.729Z,1.25
2022-10-22T04:48:45.815Z,1.62
2022-10-22T04:51:18.860Z,0.90
2022-10-22T04:53:50.434Z,1.70
2022-10-22T04:56:24.839Z,0.60
2022-10-22T04:58:58.106Z,0.62
2022-10-22T05:01:31.757Z,0.40
2022-10-22T05:04:05.163Z,1.00
2022-10-22T05:06:38.182Z,34.98
2022-10-22T05:09:12.908Z,1.20
2022-10-22T05:11:47.587Z,1.35
2022-10-22T05:14:20.525Z,0.60
2022-10-22T05:16:52.655Z,0.53
2022-10-22T05:19:26.181Z,0.60
2022-10-22T05:21:59.586Z,0.50
2022-10-22T05:24:33.267Z,0.68
2022-10-22T05:27:04.993Z,0.78
2022-10-22T05:29:36.495Z,1.05
2022-10-22T05:32:07.634Z,1.12
2022-10-22T05:34:39.241Z,0.95
2022-10-22T05:37:10.551Z,0.60
2022-10-22T05:39:41.745Z,0.50
2022-10-22T05:42:13.183Z,1.80
2022-10-22T05:44:44.436Z,0.65
2022-10-22T05:47:15.666Z,0.62
2022-10-22T05:49:46.778Z,0.72
2022-10-22T05:52:18.068Z,0.60
2022-10-22T05:54:49.194Z,0.70
2022-10-22T05:57:20.436Z,1.30
2022-10-22T05:59:51.599Z,0.90
2022-10-22T06:02:22.805Z,2.15
2022-10-22T06:04:54.086Z,1.77
2022-10-22T06:07:25.923Z,1.77
2022-10-22T06:09:57.308Z,0.98
2022-10-22T06:12:28.791Z,0.68
2022-10-22T06:15:00.178Z,0.30
2022-10-22T06:17:31.532Z,0.80
2022-10-22T06:20:02.670Z,0.80
2022-10-22T06:22:34.034Z,0.98
2022-10-22T06:25:08.190Z,1.00
2022-10-22T06:27:39.367Z,1.55
2022-10-22T06:30:12.530Z,1.50
2022-10-22T06:32:43.722Z,1.20
2022-10-22T06:35:16.018Z,1.57
2022-10-22T06:37:47.644Z,1.60
2022-10-22T06:40:19.340Z,1.27
2022-10-22T06:42:50.516Z,1.77
2022-10-22T06:47:51.506Z,1.27
2022-10-22T06:50:22.631Z,1.80
2022-10-22T06:52:57.625Z,1.57
2022-10-22T06:55:29.201Z,1.80
2022-10-22T06:58:00.476Z,1.87
2022-10-22T07:03:06.551Z,2.95
2022-10-22T07:05:37.701Z,1.90
2022-10-22T07:08:09.341Z,1.70
2022-10-22T07:10:41.578Z,4.35
2022-10-22T07:13:12.693Z,1.40
2022-10-22T07:15:44.084Z,1.55
2022-10-22T07:18:15.357Z,1.17
2022-10-22T07:20:47.802Z,0.82
2022-10-22T07:23:19.697Z,1.22
2022-10-22T07:25:51.248Z,0.93
2022-10-22T07:28:22.705Z,0.98
2022-10-22T07:30:53.983Z,0.93
2022-10-22T07:33:25.565Z,1.55
2022-10-22T07:36:00.775Z,0.60
2022-10-22T07:38:32.893Z,0.70
2022-10-22T07:41:04.661Z,0.70
2022-10-22T07:43:35.984Z,0.68
2022-10-22T07:46:08.601Z,0.62
2022-10-22T07:48:39.997Z,0.93
2022-10-22T07:51:11.341Z,0.90
2022-10-22T07:53:42.743Z,0.60
2022-10-22T07:56:14.461Z,0.80
2022-10-22T07:58:45.658Z,0.50
2022-10-22T08:01:25.808Z,0.93
2022-10-22T08:03:57.033Z,1.00
2022-10-22T08:06:28.267Z,0.60
2022-10-22T08:08:59.486Z,0.45
2022-10-22T08:11:31.101Z,0.53
2022-10-22T08:14:02.755Z,0.57
2022-10-22T08:16:33.977Z,1.27
2022-10-22T08:19:05.215Z,1.10
2022-10-22T08:21:36.416Z,0.70
2022-10-22T08:24:08.962Z,0.60
2022-10-22T08:26:40.366Z,0.78
2022-10-22T08:29:11.687Z,0.30
2022-10-22T08:31:43.244Z,0.60
2022-10-22T08:34:14.863Z,0.40
2022-10-22T08:36:46.180Z,0.25
2022-10-22T08:39:18.013Z,0.35
2022-10-22T08:41:52.648Z,0.23
2022-10-22T08:44:56.769Z,0.20
2022-10-22T08:47:51.070Z,0.33
2022-10-22T08:50:25.877Z,0.35
2022-10-22T08:52:59.957Z,0.30
2022-10-22T08:55:36.553Z,0.50
2022-10-22T08:58:09.412Z,0.30
2022-10-22T09:00:44.123Z,0.30
2022-10-22T09:03:28.401Z,0.78
2022-10-22T09:06:04.838Z,0.35
2022-10-22T09:08:37.607Z,0.30
2022-10-22T09:11:16.959Z,0.30
2022-10-22T09:13:49.346Z,0.30
2022-10-22T09:16:23.898Z,0.30
2022-10-22T09:19:03.490Z,0.15
2022-10-22T09:21:40.402Z,0.30
2022-10-22T09:24:14.897Z,0.30
2022-10-22T09:26:46.180Z,0.40
2022-10-22T09:29:20.909Z,0.30
2022-10-22T09:31:52.520Z,0.47
2022-10-22T09:34:24.081Z,0.20
2022-10-22T09:37:01.271Z,0.30
2022-10-22T09:39:35.515Z,0.20
2022-10-22T09:42:07.280Z,0.20
2022-10-22T09:44:39.428Z,0.30
2022-10-22T09:47:42.908Z,0.30
2022-10-22T09:50:15.460Z,0.30
2022-10-22T09:52:46.936Z,0.17
2022-10-22T09:55:20.518Z,0.50
2022-10-22T09:57:56.038Z,0.28
2022-10-22T10:00:28.566Z,0.10
2022-10-22T10:03:01.303Z,0.30
2022-10-22T10:05:34.315Z,0.25
2022-10-22T10:08:10.393Z,0.10
2022-10-22T10:10:44.801Z,0.25
2022-10-22T10:13:26.224Z,0.30
2022-10-22T10:16:01.187Z,0.47
2022-10-22T10:18:37.287Z,0.80
2022-10-22T10:21:12.560Z,0.40
2022-10-22T10:23:47.978Z,0.20
2022-10-22T10:26:22.427Z,0.78
2022-10-22T10:29:01.673Z,0.20
2022-10-22T10:31:40.692Z,0.40
2022-10-22T10:34:18.147Z,0.20
2022-10-22T10:36:54.354Z,1.07
2022-10-22T10:39:29.321Z,0.20
2022-10-22T10:42:13.162Z,1.07
2022-10-22T10:44:58.508Z,0.30
2022-10-22T10:47:37.816Z,0.20
2022-10-22T10:50:19.819Z,0.30
2022-10-22T10:52:56.244Z,1.50
2022-10-22T10:55:31.692Z,0.60
2022-10-22T10:58:14.463Z,0.30
2022-10-22T11:04:00.211Z,1.37
2022-10-22T11:06:34.087Z,0.60
2022-10-22T11:09:08.493Z,0.33
2022-10-22T11:11:42.585Z,0.42
2022-10-22T11:14:16.837Z,0.53
2022-10-22T11:16:51.354Z,0.30
2022-10-22T11:19:46.173Z,0.20
2022-10-22T11:22:04.246Z,0.20
2022-10-22T11:24:38.595Z,0.30
2022-10-22T11:27:13.565Z,0.20
2022-10-22T11:29:47.778Z,0.37
2022-10-22T11:32:21.755Z,0.47
2022-10-22T11:34:56.418Z,5.15
2022-10-22T11:37:33.277Z,0.50
2022-10-22T11:40:08.935Z,0.30
2022-10-22T11:42:43.312Z,0.28
2022-10-22T11:45:30.973Z,0.42
2022-10-22T11:48:07.878Z,0.57
2022-10-22T11:50:52.853Z,0.23
2022-10-22T11:53:32.320Z,0.10
2022-10-22T11:56:24.074Z,0.13
2022-10-22T11:58:56.681Z,0.23
2022-10-22T12:01:31.472Z,0.25
2022-10-22T12:04:22.160Z,0.10
2022-10-22T12:07:13.921Z,0.13
2022-10-22T12:09:46.872Z,0.30
2022-10-22T12:12:19.861Z,0.20
2022-10-22T12:14:57.738Z,0.10
2022-10-22T12:17:32.094Z,0.20
2022-10-22T12:20:07.364Z,0.40
2022-10-22T12:22:40.972Z,0.15
2022-10-22T12:25:22.187Z,0.30
2022-10-22T12:27:55.787Z,0.20
2022-10-22T12:30:29.329Z,0.15
2022-10-22T12:33:02.966Z,0.28
2022-10-22T12:35:36.215Z,0.20
2022-10-22T12:38:11.078Z,0.30
2022-10-22T12:40:45.974Z,0.00
2022-10-22T12:43:17.914Z,0.25
2022-10-22T12:45:51.387Z,0.37
2022-10-22T12:48:25.375Z,0.15
2022-10-22T12:50:59.009Z,0.20
2022-10-22T12:53:32.838Z,1.05
2022-10-22T12:56:07.190Z,0.10
2022-10-22T12:58:42.943Z,0.10
2022-10-22T13:01:16.501Z,0.20
2022-10-22T13:03:50.526Z,0.10
2022-10-22T13:06:27.417Z,0.33
2022-10-22T13:09:04.972Z,0.00
2022-10-22T13:11:40.448Z,0.10
2022-10-22T13:14:22.341Z,0.20
2022-10-22T13:17:08.478Z,0.00
2022-10-22T13:19:49.662Z,0.28
2022-10-22T13:22:33.178Z,0.13
2022-10-22T13:25:22.865Z,0.10
2022-10-22T13:27:56.275Z,0.10
2022-10-22T13:30:29.823Z,0.10
2022-10-22T13:33:03.277Z,0.20
2022-10-22T13:35:37.213Z,0.10
2022-10-22T13:38:13.938Z,0.30
2022-10-22T13:40:46.510Z,0.50
2022-10-22T13:43:18.781Z,0.78
2022-10-22T13:45:52.236Z,0.08
2022-10-22T13:48:26.648Z,0.30
2022-10-22T13:50:58.873Z,0.10
2022-10-22T13:53:31.230Z,0.20
2022-10-22T13:56:02.424Z,0.23
2022-10-22T13:58:33.614Z,0.10
2022-10-22T14:01:07.202Z,0.10
2022-10-22T14:03:40.335Z,0.10
2022-10-22T14:06:14.381Z,0.15
2022-10-22T14:08:48.313Z,0.20
2022-10-22T14:11:19.734Z,0.20
2022-10-22T14:13:51.122Z,0.20
2022-10-22T14:16:24.274Z,0.72
2022-10-22T14:18:56.642Z,0.10
2022-10-22T14:21:29.643Z,0.20
2022-10-22T14:24:00.973Z,0.20
2022-10-22T14:26:34.962Z,0.65
2022-10-22T14:29:10.607Z,0.10
2022-10-22T14:34:13.330Z,0.33
2022-10-22T14:36:45.230Z,0.20
2022-10-22T14:39:35.384Z,0.30
2022-10-22T14:42:07.037Z,0.40
2022-10-22T14:44:39.515Z,0.30
2022-10-22T14:47:10.817Z,0.85
2022-10-22T14:49:43.313Z,0.45
2022-10-22T14:52:15.108Z,0.20
2022-10-22T14:54:49.211Z,0.30
2022-10-22T14:57:20.761Z,0.53
2022-10-22T14:59:54.309Z,0.40
2022-10-22T15:02:26.606Z,0.28
2022-10-22T15:07:29.200Z,0.70
2022-10-22T15:10:00.497Z,0.30
2022-10-22T15:12:31.700Z,0.30
2022-10-22T15:15:03.206Z,0.30
2022-10-22T15:17:34.540Z,0.30
2022-10-22T15:20:07.155Z,0.35
2022-10-22T15:22:38.911Z,0.60
2022-10-22T15:25:11.409Z,1.05
2022-10-22T15:27:43.492Z,3.25
2022-10-22T15:30:15.951Z,7.47
2022-10-22T15:32:50.765Z,11.63
2022-10-22T15:35:21.910Z,5.95
2022-10-22T15:37:53.705Z,1.22
2022-10-22T15:40:25.252Z,2.05
2022-10-22T15:42:56.601Z,1.40
2022-10-22T15:45:28.034Z,1.10
2022-10-22T15:47:59.244Z,0.90
2022-10-22T15:50:31.380Z,1.10
2022-10-22T15:53:02.816Z,1.90
2022-10-22T15:55:34.281Z,1.32
2022-10-22T15:58:05.751Z,1.00
2022-10-22T16:00:37.037Z,0.88
2022-10-22T16:03:08.329Z,0.80
2022-10-22T16:05:39.546Z,0.60
2022-10-22T16:08:11.035Z,1.47
2022-10-22T16:10:47.038Z,2.02
2022-10-22T16:13:18.280Z,2.27
2022-10-22T16:15:49.527Z,1.30
2022-10-22T16:18:23.580Z,1.30
2022-10-22T16:20:54.921Z,0.98
2022-10-22T16:23:26.125Z,1.00
2022-10-22T16:25:57.664Z,1.67
2022-10-22T16:28:29.081Z,0.62
2022-10-22T16:31:05.956Z,0.50
2022-10-22T16:33:41.511Z,0.80
2022-10-22T16:36:11.033Z,0.50
2022-10-22T16:38:42.317Z,0.90
2022-10-22T16:41:15.498Z,1.87
2022-10-22T16:43:48.920Z,0.70
2022-10-22T16:46:21.912Z,1.12
2022-10-22T16:48:53.783Z,1.42
2022-10-22T16:51:26.992Z,0.55
2022-10-22T16:56:37.739Z,0.30
2022-10-22T16:59:09.111Z,0.33
2022-10-22T17:01:41.396Z,0.50
2022-10-22T17:04:13.776Z,0.40
2022-10-22T17:06:45.135Z,0.62
2022-10-22T17:09:16.662Z,0.50
2022-10-22T17:11:47.833Z,0.70
2022-10-22T17:14:19.305Z,1.02
2022-10-22T17:16:52.101Z,0.78
2022-10-22T17:19:24.658Z,0.40
2022-10-22T17:21:55.954Z,0.78
2022-10-22T17:24:27.199Z,0.62
2022-10-22T17:26:58.496Z,0.82
2022-10-22T17:29:29.718Z,1.52
2022-10-22T17:32:01.915Z,1.15
2022-10-22T17:34:33.219Z,0.70
2022-10-22T17:37:04.589Z,0.80
2022-10-22T17:39:36.058Z,0.72
2022-10-22T17:42:07.438Z,0.98
2022-10-22T17:44:38.896Z,0.65
2022-10-22T17:47:10.126Z,0.60
2022-10-22T17:49:41.746Z,0.65
2022-10-22T17:52:14.485Z,0.45
2022-10-22T17:54:46.009Z,2.98
2022-10-22T17:57:17.311Z,0.72
2022-10-22T17:59:48.471Z,0.68
2022-10-22T18:02:20.149Z,0.90
2022-10-22T18:04:53.058Z,0.80
2022-10-22T18:07:24.401Z,5.30
2022-10-22T18:09:55.893Z,0.90
2022-10-22T18:12:27.217Z,0.62
2022-10-22T18:14:58.517Z,0.75
2022-10-22T18:17:32.585Z,0.85
2022-10-22T18:20:04.739Z,0.98
2022-10-22T18:22:37.033Z,1.22
2022-10-22T18:25:12.647Z,0.47
2022-10-22T18:27:45.565Z,0.30
2022-10-22T18:30:18.066Z,0.70
2022-10-22T18:32:51.010Z,0.78
2022-10-22T18:35:22.170Z,0.62
2022-10-22T18:37:53.664Z,1.55
2022-10-22T18:43:05.100Z,0.62
2022-10-22T18:45:36.970Z,0.70
2022-10-22T18:48:08.546Z,0.55
2022-10-22T18:50:40.200Z,0.60
2022-10-22T18:53:13.504Z,0.60
2022-10-22T18:55:45.378Z,0.82
2022-10-22T18:58:18.087Z,0.65
2022-10-22T19:00:49.815Z,0.50
2022-10-22T19:03:21.145Z,0.90
2022-10-22T19:05:54.882Z,0.62
2022-10-22T19:08:27.060Z,0.60
2022-10-22T19:10:58.529Z,0.65
2022-10-22T19:13:30.138Z,0.80
2022-10-22T19:16:05.015Z,0.82
2022-10-22T19:18:38.496Z,5.33
2022-10-22T19:21:10.018Z,0.60
2022-10-22T19:23:41.229Z,0.50
2022-10-22T19:26:15.817Z,1.25
2022-10-22T19:28:47.457Z,0.30
2022-10-22T19:31:21.751Z,0.50
2022-10-22T19:33:54.529Z,0.60
2022-10-22T19:36:27.775Z,0.40
2022-10-22T19:38:59.893Z,0.65
2022-10-22T19:41:32.216Z,0.30
2022-10-22T19:44:03.569Z,0.37
2022-10-22T19:46:34.975Z,0.53
2022-10-22T19:49:06.795Z,0.50
2022-10-22T19:51:39.693Z,1.57
2022-10-22T19:54:15.314Z,0.72
2022-10-22T19:56:47.936Z,0.75
2022-10-22T19:59:22.620Z,0.60
2022-10-22T20:01:53.994Z,0.40
2022-10-22T20:04:27.033Z,0.75
2022-10-22T20:06:58.328Z,0.85
2022-10-22T20:09:29.453Z,0.42
2022-10-22T20:12:00.801Z,0.60
2022-10-22T20:14:32.061Z,0.60
2022-10-22T20:19:42.433Z,0.60
2022-10-22T20:22:17.772Z,0.70
2022-10-22T20:24:46.973Z,0.65
2022-10-22T20:27:18.224Z,1.02
2022-10-22T20:29:49.640Z,0.95
2022-10-22T20:32:22.019Z,0.50
2022-10-22T20:34:53.432Z,0.47
2022-10-22T20:37:25.803Z,0.80
2022-10-22T20:39:57.124Z,0.40
2022-10-22T20:42:28.342Z,3.52
2022-10-22T20:44:59.698Z,0.30
2022-10-22T20:47:44.320Z,0.30
2022-10-22T20:50:04.450Z,0.50
2022-10-22T20:52:37.352Z,0.42
2022-10-22T20:55:09.214Z,0.50
2022-10-22T20:57:41.901Z,0.20
2022-10-22T21:00:15.428Z,0.50
2022-10-22T21:02:46.842Z,0.40
2022-10-22T21:05:18.368Z,0.40
2022-10-22T21:07:50.428Z,0.78
2022-10-22T21:10:21.565Z,0.68
2022-10-22T21:12:52.764Z,0.50
2022-10-22T21:15:24.090Z,0.40
2022-10-22T21:17:55.761Z,0.70
2022-10-22T21:20:27.004Z,0.40
2022-10-22T21:22:58.515Z,0.35
2022-10-22T21:25:29.918Z,0.50
2022-10-22T21:28:08.893Z,0.30
2022-10-22T21:30:46.072Z,0.40
2022-10-22T21:33:37.917Z,0.30
2022-10-22T21:36:10.663Z,0.40
2022-10-22T21:38:41.982Z,0.20
2022-10-22T21:41:15.835Z,0.20
2022-10-22T21:43:47.275Z,0.30
2022-10-22T21:46:21.228Z,0.40
2022-10-22T21:48:56.569Z,0.53
2022-10-22T21:51:27.986Z,0.47
2022-10-22T21:53:59.613Z,0.50
2022-10-22T21:56:33.715Z,0.30
2022-10-22T22:01:46.238Z,0.40
2022-10-22T22:04:17.377Z,0.60
2022-10-22T22:06:48.784Z,0.37
2022-10-22T22:09:20.858Z,0.40
2022-10-22T22:11:52.349Z,0.40
2022-10-22T22:14:23.771Z,0.25
2022-10-22T22:16:56.160Z,0.20
2022-10-22T22:19:27.440Z,0.47
2022-10-22T22:21:58.685Z,0.30
2022-10-22T22:24:29.980Z,0.23
2022-10-22T22:27:01.557Z,0.30
2022-10-22T22:29:34.068Z,0.93
2022-10-22T22:32:06.542Z,0.45
2022-10-22T22:34:38.362Z,0.50
2022-10-22T22:37:09.877Z,0.60
2022-10-22T22:39:42.356Z,0.40
2022-10-22T22:42:13.593Z,0.33
2022-10-22T22:44:44.860Z,0.60
2022-10-22T22:47:16.177Z,1.30
2022-10-22T22:49:47.524Z,0.50
2022-10-22T22:52:18.763Z,0.47
2022-10-22T22:54:50.088Z,0.68
2022-10-22T22:57:21.404Z,0.60
2022-10-22T22:59:52.833Z,0.80
2022-10-22T23:02:24.128Z,0.95
2022-10-22T23:04:55.440Z,0.65
2022-10-22T23:07:26.826Z,0.45
2022-10-22T23:09:58.037Z,0.98
2022-10-22T23:12:29.432Z,1.70
2022-10-22T23:15:02.276Z,0.65
2022-10-22T23:17:33.655Z,0.50
2022-10-22T23:20:06.055Z,0.57
2022-10-22T23:22:37.354Z,0.55
2022-10-22T23:25:10.586Z,0.90
2022-10-22T23:27:45.881Z,1.10
2022-10-22T23:30:17.472Z,0.60
2022-10-22T23:32:48.782Z,0.60
2022-10-22T23:35:20.824Z,0.42
2022-10-22T23:40:29.200Z,2.50
2022-10-22T23:43:01.086Z,1.02
2022-10-22T23:45:34.682Z,0.90
2022-10-22T23:48:06.487Z,1.30
2022-10-22T23:50:38.992Z,1.15
2022-10-22T23:53:10.229Z,1.00
2022-10-22T23:55:42.806Z,1.10
2022-10-22T23:58:14.161Z,1.30
